JBU3914 KFLL-MKJS
Flight info
| Callsign | JBU3914 |
|---|---|
| Flight time | 1h 23m |
| Altitude | 36000 |
| Route | REGAE2 URSUS UL780 TASNO UM221 NIBEO DCT ADSEL LENAR7 |
| Aircraft | A320/M-SDE3FGHIRWY/LB1 |
Departure
| Time | 2026-05-03 22:57 |
|---|---|
| Airport | Fort Lauderdale Hollywood International Airport (KFLL) |
Arrival
| Time | 2026-05-04 00:21 |
|---|---|
| Airport | Sangster International Airport (MKJS) |
| Time | Latitude | Longitude | Altitude | Speed | Heading |
|---|---|---|---|---|---|
| 2026-05-03 21:33 | 26.07151 | -80.14648 | 16 ft | 0 kts | 179° |
| 2026-05-03 22:28 | 26.07155 | -80.14648 | 16 ft | 3 kts | 178° |
| 2026-05-03 22:28 | 26.07182 | -80.14650 | 17 ft | 4 kts | 174° |
| 2026-05-03 22:28 | 26.07200 | -80.14653 | 17 ft | 4 kts | 245° |
| 2026-05-03 22:29 | 26.07202 | -80.14664 | 19 ft | 0 kts | 281° |
| 2026-05-03 22:32 | 26.07203 | -80.14667 | 18 ft | 2 kts | 281° |
| 2026-05-03 22:32 | 26.07212 | -80.14748 | 16 ft | 17 kts | 258° |
| 2026-05-03 22:33 | 26.07187 | -80.14785 | 16 ft | 0 kts | 224° |
| 2026-05-03 22:33 | 26.07168 | -80.14806 | 16 ft | 10 kts | 224° |
| 2026-05-03 22:33 | 26.07128 | -80.14899 | 16 ft | 16 kts | 281° |
| 2026-05-03 22:33 | 26.07161 | -80.15000 | 16 ft | 11 kts | 230° |
| 2026-05-03 22:34 | 26.07101 | -80.15053 | 16 ft | 14 kts | 223° |
| 2026-05-03 22:34 | 26.07016 | -80.15127 | 16 ft | 15 kts | 188° |
| 2026-05-03 22:34 | 26.06910 | -80.15131 | 17 ft | 16 kts | 180° |
| 2026-05-03 22:34 | 26.06788 | -80.15131 | 16 ft | 19 kts | 179° |
| 2026-05-03 22:35 | 26.06696 | -80.15159 | 21 ft | 11 kts | 256° |
| 2026-05-03 22:35 | 26.06695 | -80.15261 | 18 ft | 19 kts | 270° |
| 2026-05-03 22:35 | 26.06697 | -80.15407 | 16 ft | 10 kts | 270° |
| 2026-05-03 22:35 | 26.06697 | -80.15482 | 16 ft | 0 kts | 270° |
| 2026-05-03 22:42 | 26.06697 | -80.15485 | 16 ft | 2 kts | 270° |
| 2026-05-03 22:42 | 26.06697 | -80.15513 | 16 ft | 2 kts | 270° |
| 2026-05-03 22:42 | 26.06697 | -80.15518 | 16 ft | 0 kts | 270° |
| 2026-05-03 22:43 | 26.06697 | -80.15520 | 16 ft | 2 kts | 270° |
| 2026-05-03 22:43 | 26.06697 | -80.15536 | 16 ft | 0 kts | 270° |
| 2026-05-03 22:44 | 26.06697 | -80.15540 | 16 ft | 4 kts | 270° |
| 2026-05-03 22:44 | 26.06697 | -80.15604 | 16 ft | 0 kts | 271° |
| 2026-05-03 22:45 | 26.06698 | -80.15638 | 16 ft | 9 kts | 271° |
| 2026-05-03 22:45 | 26.06698 | -80.15664 | 16 ft | 0 kts | 270° |
| 2026-05-03 22:50 | 26.06698 | -80.15667 | 16 ft | 1 kts | 270° |
| 2026-05-03 22:50 | 26.06699 | -80.15691 | 16 ft | 5 kts | 270° |
| 2026-05-03 22:50 | 26.06699 | -80.15715 | 16 ft | 0 kts | 270° |
| 2026-05-03 22:51 | 26.06699 | -80.15723 | 16 ft | 4 kts | 270° |
| 2026-05-03 22:51 | 26.06699 | -80.15760 | 16 ft | 0 kts | 270° |
| 2026-05-03 22:53 | 26.06699 | -80.15764 | 16 ft | 0 kts | 270° |
| 2026-05-03 22:53 | 26.06699 | -80.15765 | 16 ft | 0 kts | 270° |
| 2026-05-03 22:53 | 26.06699 | -80.15788 | 16 ft | 8 kts | 270° |
| 2026-05-03 22:53 | 26.06676 | -80.15823 | 18 ft | 5 kts | 186° |
| 2026-05-03 22:54 | 26.06671 | -80.15823 | 16 ft | 0 kts | 177° |
| 2026-05-03 22:55 | 26.06658 | -80.15822 | 16 ft | 6 kts | 177° |
| 2026-05-03 22:55 | 26.06598 | -80.15816 | 18 ft | 7 kts | 159° |
| 2026-05-03 22:55 | 26.06588 | -80.15784 | 19 ft | 0 kts | 89° |
| 2026-05-03 22:57 | 26.06590 | -80.15608 | 23 ft | 60 kts | 90° |
| 2026-05-03 22:57 | 26.06584 | -80.14882 | 19 ft | 124 kts | 90° |
| 2026-05-03 22:57 | 26.06583 | -80.13758 | 199 ft | 158 kts | 88° |
| 2026-05-03 22:57 | 26.06592 | -80.12528 | 790 ft | 163 kts | 87° |
| 2026-05-03 22:58 | 26.06625 | -80.11201 | 1350 ft | 175 kts | 85° |
| 2026-05-03 22:58 | 26.06668 | -80.09799 | 1789 ft | 191 kts | 86° |
| 2026-05-03 22:58 | 26.06691 | -80.08240 | 2068 ft | 213 kts | 88° |
| 2026-05-03 22:58 | 26.06705 | -80.06493 | 2397 ft | 238 kts | 89° |
| 2026-05-03 22:59 | 26.06716 | -80.04558 | 2834 ft | 262 kts | 89° |
| 2026-05-03 22:59 | 26.06726 | -80.02476 | 3545 ft | 274 kts | 90° |
| 2026-05-03 22:59 | 26.06735 | -80.00322 | 3887 ft | 281 kts | 90° |
| 2026-05-03 22:59 | 26.06727 | -79.98147 | 3981 ft | 281 kts | 91° |
| 2026-05-03 23:00 | 26.06704 | -79.95968 | 3996 ft | 281 kts | 91° |
| 2026-05-03 23:00 | 26.06676 | -79.93791 | 4000 ft | 281 kts | 91° |
| 2026-05-03 23:00 | 26.06648 | -79.91617 | 3996 ft | 282 kts | 91° |
| 2026-05-03 23:00 | 26.06621 | -79.89437 | 3997 ft | 282 kts | 91° |
| 2026-05-03 23:01 | 26.06596 | -79.87261 | 4000 ft | 281 kts | 91° |
| 2026-05-03 23:01 | 26.06575 | -79.85084 | 3999 ft | 282 kts | 91° |
| 2026-05-03 23:01 | 26.06510 | -79.82905 | 4002 ft | 282 kts | 97° |
| 2026-05-03 23:01 | 26.06197 | -79.80755 | 4001 ft | 281 kts | 101° |
| 2026-05-03 23:02 | 26.05862 | -79.78610 | 4000 ft | 281 kts | 101° |
| 2026-05-03 23:02 | 26.05528 | -79.76469 | 4002 ft | 281 kts | 101° |
| 2026-05-03 23:02 | 26.05193 | -79.74326 | 4004 ft | 281 kts | 101° |
| 2026-05-03 23:02 | 26.04858 | -79.72189 | 4003 ft | 281 kts | 101° |
| 2026-05-03 23:03 | 26.04523 | -79.70050 | 4003 ft | 281 kts | 101° |
| 2026-05-03 23:03 | 26.04188 | -79.67910 | 4003 ft | 281 kts | 100° |
| 2026-05-03 23:03 | 26.03854 | -79.65769 | 4004 ft | 281 kts | 101° |
| 2026-05-03 23:03 | 26.03429 | -79.63654 | 4003 ft | 280 kts | 106° |
| 2026-05-03 23:04 | 26.02924 | -79.61568 | 4002 ft | 280 kts | 106° |
| 2026-05-03 23:04 | 26.02422 | -79.59474 | 4003 ft | 280 kts | 105° |
| 2026-05-03 23:04 | 26.01922 | -79.57379 | 4003 ft | 280 kts | 105° |
| 2026-05-03 23:04 | 26.01423 | -79.55286 | 4002 ft | 280 kts | 105° |
| 2026-05-03 23:05 | 26.00921 | -79.53190 | 4003 ft | 281 kts | 107° |
| 2026-05-03 23:05 | 26.00174 | -79.51200 | 4002 ft | 278 kts | 123° |
| 2026-05-03 23:05 | 25.98974 | -79.49537 | 4003 ft | 275 kts | 139° |
| 2026-05-03 23:05 | 25.97424 | -79.48308 | 4004 ft | 274 kts | 155° |
| 2026-05-03 23:06 | 25.95650 | -79.47592 | 4003 ft | 270 kts | 171° |
| 2026-05-03 23:06 | 25.93803 | -79.47204 | 4003 ft | 270 kts | 172° |
| 2026-05-03 23:06 | 25.91957 | -79.46817 | 4003 ft | 270 kts | 172° |
| 2026-05-03 23:06 | 25.90112 | -79.46425 | 4002 ft | 270 kts | 172° |
| 2026-05-03 23:07 | 25.88267 | -79.46029 | 4003 ft | 270 kts | 171° |
| 2026-05-03 23:07 | 25.86417 | -79.45696 | 3997 ft | 268 kts | 178° |
| 2026-05-03 23:07 | 25.84564 | -79.45730 | 4002 ft | 266 kts | 189° |
| 2026-05-03 23:07 | 25.82765 | -79.46167 | 4002 ft | 264 kts | 200° |
| 2026-05-03 23:08 | 25.81082 | -79.46971 | 4002 ft | 263 kts | 211° |
| 2026-05-03 23:08 | 25.79536 | -79.48058 | 4001 ft | 263 kts | 215° |
| 2026-05-03 23:08 | 25.78004 | -79.49172 | 4003 ft | 263 kts | 214° |
| 2026-05-03 23:08 | 25.76455 | -79.50295 | 4375 ft | 270 kts | 214° |
| 2026-05-03 23:09 | 25.74896 | -79.51423 | 5443 ft | 266 kts | 215° |
| 2026-05-03 23:09 | 25.73323 | -79.52560 | 6454 ft | 266 kts | 215° |
| 2026-05-03 23:09 | 25.71763 | -79.53687 | 7326 ft | 269 kts | 215° |
| 2026-05-03 23:09 | 25.70188 | -79.54828 | 8184 ft | 272 kts | 216° |
| 2026-05-03 23:10 | 25.68600 | -79.55977 | 9038 ft | 274 kts | 216° |
| 2026-05-03 23:10 | 25.67047 | -79.57227 | 9874 ft | 276 kts | 221° |
| 2026-05-03 23:10 | 25.66044 | -79.58110 | 10287 ft | 284 kts | 221° |
| 2026-05-03 23:10 | 25.63862 | -79.60035 | 10603 ft | 314 kts | 221° |
| 2026-05-03 23:11 | 25.62126 | -79.61563 | 11148 ft | 323 kts | 220° |
| 2026-05-03 23:11 | 25.60349 | -79.63119 | 11818 ft | 327 kts | 220° |
| 2026-05-03 23:11 | 25.58557 | -79.64685 | 12524 ft | 330 kts | 220° |
| 2026-05-03 23:11 | 25.56768 | -79.66247 | 13166 ft | 333 kts | 220° |
| 2026-05-03 23:12 | 25.54936 | -79.67846 | 13822 ft | 337 kts | 220° |
| 2026-05-03 23:12 | 25.53083 | -79.69463 | 14411 ft | 340 kts | 220° |
| 2026-05-03 23:12 | 25.51219 | -79.71094 | 15014 ft | 342 kts | 220° |
| 2026-05-03 23:12 | 25.49343 | -79.72738 | 15615 ft | 344 kts | 220° |
| 2026-05-03 23:13 | 25.47459 | -79.74389 | 16221 ft | 347 kts | 220° |
| 2026-05-03 23:13 | 25.45562 | -79.76048 | 16823 ft | 349 kts | 220° |
| 2026-05-03 23:13 | 25.43645 | -79.77719 | 17424 ft | 351 kts | 220° |
| 2026-05-03 23:13 | 25.41717 | -79.79396 | 18018 ft | 353 kts | 220° |
| 2026-05-03 23:14 | 25.39778 | -79.81082 | 18589 ft | 355 kts | 220° |
| 2026-05-03 23:14 | 25.37675 | -79.82550 | 19109 ft | 362 kts | 208° |
| 2026-05-03 23:14 | 25.35252 | -79.83422 | 19637 ft | 371 kts | 195° |
| 2026-05-03 23:14 | 25.32644 | -79.83593 | 20157 ft | 382 kts | 181° |
| 2026-05-03 23:15 | 25.29993 | -79.83007 | 20655 ft | 393 kts | 169° |
| 2026-05-03 23:15 | 25.27363 | -79.82155 | 21091 ft | 396 kts | 169° |
| 2026-05-03 23:15 | 25.24699 | -79.81291 | 21544 ft | 400 kts | 169° |
| 2026-05-03 23:15 | 25.22012 | -79.80427 | 22007 ft | 403 kts | 169° |
| 2026-05-03 23:16 | 25.19310 | -79.79564 | 22453 ft | 406 kts | 170° |
| 2026-05-03 23:16 | 25.16586 | -79.78698 | 22895 ft | 409 kts | 170° |
| 2026-05-03 23:16 | 25.13836 | -79.77824 | 23331 ft | 412 kts | 170° |
| 2026-05-03 23:16 | 25.11078 | -79.76946 | 23733 ft | 415 kts | 170° |
| 2026-05-03 23:17 | 25.08289 | -79.76057 | 24104 ft | 418 kts | 170° |
| 2026-05-03 23:17 | 25.05521 | -79.75173 | 24472 ft | 420 kts | 170° |
| 2026-05-03 23:17 | 25.02700 | -79.74272 | 24846 ft | 422 kts | 170° |
| 2026-05-03 23:17 | 24.99871 | -79.73367 | 25221 ft | 424 kts | 170° |
| 2026-05-03 23:18 | 24.97026 | -79.72461 | 25576 ft | 427 kts | 171° |
| 2026-05-03 23:18 | 24.94160 | -79.71549 | 25940 ft | 429 kts | 171° |
| 2026-05-03 23:18 | 24.91284 | -79.70633 | 26307 ft | 432 kts | 169° |
| 2026-05-03 23:18 | 24.88453 | -79.69394 | 26657 ft | 443 kts | 160° |
| 2026-05-03 23:19 | 24.85777 | -79.67642 | 27008 ft | 451 kts | 153° |
| 2026-05-03 23:19 | 24.83136 | -79.65765 | 27355 ft | 453 kts | 154° |
| 2026-05-03 23:19 | 24.81348 | -79.64497 | 27601 ft | 454 kts | 154° |
| 2026-05-03 23:19 | 24.78711 | -79.62635 | 27955 ft | 456 kts | 154° |
| 2026-05-03 23:20 | 24.76022 | -79.60745 | 28321 ft | 459 kts | 154° |
| 2026-05-03 23:20 | 24.73323 | -79.58853 | 28692 ft | 461 kts | 154° |
| 2026-05-03 23:20 | 24.70604 | -79.56950 | 29063 ft | 463 kts | 154° |
| 2026-05-03 23:20 | 24.67877 | -79.55041 | 29428 ft | 466 kts | 154° |
| 2026-05-03 23:21 | 24.65139 | -79.53120 | 29783 ft | 468 kts | 154° |
| 2026-05-03 23:21 | 24.62376 | -79.51178 | 30079 ft | 472 kts | 153° |
| 2026-05-03 23:21 | 24.59603 | -79.49227 | 30348 ft | 475 kts | 153° |
| 2026-05-03 23:21 | 24.56815 | -79.47266 | 30629 ft | 477 kts | 153° |
| 2026-05-03 23:22 | 24.51191 | -79.43318 | 31216 ft | 481 kts | 154° |
| 2026-05-03 23:22 | 24.48375 | -79.41347 | 31595 ft | 481 kts | 153° |
| 2026-05-03 23:22 | 24.45559 | -79.39376 | 32047 ft | 479 kts | 154° |
| 2026-05-03 23:23 | 24.42748 | -79.37408 | 32462 ft | 479 kts | 154° |
| 2026-05-03 23:23 | 24.39937 | -79.35444 | 32868 ft | 478 kts | 154° |
| 2026-05-03 23:23 | 24.37127 | -79.33480 | 33271 ft | 478 kts | 154° |
| 2026-05-03 23:23 | 24.34319 | -79.31513 | 33677 ft | 478 kts | 154° |
| 2026-05-03 23:24 | 24.31510 | -79.29546 | 34080 ft | 478 kts | 154° |
| 2026-05-03 23:24 | 24.28703 | -79.27579 | 34452 ft | 478 kts | 154° |
| 2026-05-03 23:24 | 24.25917 | -79.25598 | 34830 ft | 477 kts | 154° |
| 2026-05-03 23:24 | 24.23136 | -79.23598 | 35192 ft | 477 kts | 154° |
| 2026-05-03 23:25 | 24.20372 | -79.21597 | 35554 ft | 476 kts | 154° |
| 2026-05-03 23:25 | 24.17614 | -79.19596 | 35890 ft | 476 kts | 154° |
| 2026-05-03 23:25 | 24.14848 | -79.17595 | 35997 ft | 475 kts | 154° |
| 2026-05-03 23:25 | 24.12090 | -79.15609 | 36028 ft | 474 kts | 154° |
| 2026-05-03 23:26 | 24.06599 | -79.11689 | 36027 ft | 473 kts | 154° |
| 2026-05-03 23:26 | 24.00867 | -79.08402 | 36027 ft | 457 kts | 169° |
| 2026-05-03 23:27 | 23.94748 | -79.07138 | 36028 ft | 441 kts | 185° |
| 2026-05-03 23:27 | 23.88643 | -79.07239 | 36027 ft | 438 kts | 188° |
| 2026-05-03 23:28 | 23.82527 | -79.07378 | 36030 ft | 439 kts | 188° |
| 2026-05-03 23:28 | 23.76420 | -79.07506 | 36034 ft | 439 kts | 188° |
| 2026-05-03 23:29 | 23.70344 | -79.07646 | 36039 ft | 439 kts | 188° |
| 2026-05-03 23:29 | 23.64227 | -79.07782 | 36021 ft | 439 kts | 187° |
| 2026-05-03 23:30 | 23.58100 | -79.07914 | 36023 ft | 440 kts | 187° |
| 2026-05-03 23:30 | 23.51968 | -79.08051 | 36028 ft | 440 kts | 187° |
| 2026-05-03 23:31 | 23.45835 | -79.08193 | 36031 ft | 440 kts | 187° |
| 2026-05-03 23:31 | 23.39698 | -79.08333 | 36034 ft | 441 kts | 187° |
| 2026-05-03 23:32 | 23.33561 | -79.08468 | 36023 ft | 441 kts | 187° |
| 2026-05-03 23:32 | 23.27413 | -79.08601 | 36032 ft | 441 kts | 187° |
| 2026-05-03 23:33 | 23.21299 | -79.08738 | 36038 ft | 441 kts | 187° |
| 2026-05-03 23:33 | 23.15145 | -79.08882 | 36041 ft | 441 kts | 187° |
| 2026-05-03 23:34 | 23.08989 | -79.09017 | 36043 ft | 441 kts | 187° |
| 2026-05-03 23:34 | 23.02858 | -79.09147 | 36019 ft | 441 kts | 188° |
| 2026-05-03 23:35 | 22.96712 | -79.09285 | 36022 ft | 441 kts | 188° |
| 2026-05-03 23:35 | 22.90564 | -79.09423 | 36025 ft | 441 kts | 188° |
| 2026-05-03 23:36 | 22.84415 | -79.09552 | 36034 ft | 441 kts | 188° |
| 2026-05-03 23:36 | 22.78297 | -79.09683 | 36034 ft | 442 kts | 188° |
| 2026-05-03 23:37 | 22.72149 | -79.09822 | 36018 ft | 442 kts | 187° |
| 2026-05-03 23:37 | 22.65981 | -79.09958 | 36027 ft | 442 kts | 187° |
| 2026-05-03 23:38 | 22.59824 | -79.10094 | 36033 ft | 442 kts | 187° |
| 2026-05-03 23:38 | 22.53659 | -79.10233 | 36035 ft | 442 kts | 187° |
| 2026-05-03 23:39 | 22.47543 | -79.10366 | 36036 ft | 442 kts | 187° |
| 2026-05-03 23:39 | 22.41382 | -79.10504 | 36041 ft | 442 kts | 187° |
| 2026-05-03 23:40 | 22.35213 | -79.10626 | 36024 ft | 443 kts | 187° |
| 2026-05-03 23:40 | 22.29034 | -79.10752 | 36026 ft | 444 kts | 187° |
| 2026-05-03 23:41 | 22.22844 | -79.10895 | 36029 ft | 444 kts | 187° |
| 2026-05-03 23:41 | 22.16676 | -79.11038 | 36029 ft | 445 kts | 187° |
| 2026-05-03 23:42 | 22.10457 | -79.10605 | 36033 ft | 456 kts | 174° |
| 2026-05-03 23:42 | 22.04237 | -79.09212 | 36011 ft | 456 kts | 174° |
| 2026-05-03 23:43 | 21.98003 | -79.07830 | 36018 ft | 457 kts | 174° |
| 2026-05-03 23:43 | 21.91749 | -79.06445 | 36024 ft | 458 kts | 174° |
| 2026-05-03 23:44 | 21.85499 | -79.05053 | 36030 ft | 458 kts | 174° |
| 2026-05-03 23:44 | 21.79253 | -79.03672 | 36037 ft | 458 kts | 174° |
| 2026-05-03 23:45 | 21.73051 | -79.02305 | 36023 ft | 457 kts | 174° |
| 2026-05-03 23:45 | 21.66814 | -79.00928 | 36021 ft | 458 kts | 174° |
| 2026-05-03 23:46 | 21.60567 | -78.99547 | 36027 ft | 458 kts | 174° |
| 2026-05-03 23:46 | 21.54316 | -78.98177 | 36025 ft | 458 kts | 174° |
| 2026-05-03 23:47 | 21.48066 | -78.96802 | 36033 ft | 458 kts | 174° |
| 2026-05-03 23:47 | 21.41818 | -78.95424 | 36008 ft | 458 kts | 174° |
| 2026-05-03 23:48 | 21.35567 | -78.94046 | 36013 ft | 458 kts | 174° |
| 2026-05-03 23:48 | 21.29343 | -78.92681 | 36022 ft | 459 kts | 174° |
| 2026-05-03 23:49 | 21.23084 | -78.91311 | 36028 ft | 459 kts | 174° |
| 2026-05-03 23:49 | 21.16811 | -78.89932 | 36027 ft | 459 kts | 174° |
| 2026-05-03 23:50 | 21.11564 | -78.88779 | 36032 ft | 459 kts | 174° |
| 2026-05-03 23:50 | 21.04276 | -78.87188 | 36036 ft | 460 kts | 174° |
| 2026-05-03 23:51 | 20.98002 | -78.85809 | 36040 ft | 460 kts | 174° |
| 2026-05-03 23:51 | 20.91729 | -78.84436 | 36038 ft | 459 kts | 174° |
| 2026-05-03 23:52 | 20.86519 | -78.83301 | 36037 ft | 459 kts | 174° |
| 2026-05-03 23:52 | 20.80240 | -78.81939 | 36038 ft | 459 kts | 174° |
| 2026-05-03 23:53 | 20.73962 | -78.80575 | 36024 ft | 459 kts | 174° |
| 2026-05-03 23:53 | 20.67723 | -78.79216 | 36027 ft | 460 kts | 174° |
| 2026-05-03 23:54 | 20.61439 | -78.77850 | 36028 ft | 460 kts | 174° |
| 2026-05-03 23:54 | 20.55159 | -78.76481 | 36032 ft | 460 kts | 173° |
| 2026-05-03 23:55 | 20.48884 | -78.75110 | 36034 ft | 460 kts | 174° |
| 2026-05-03 23:55 | 20.42592 | -78.73745 | 36025 ft | 460 kts | 173° |
| 2026-05-03 23:56 | 20.36311 | -78.72386 | 36034 ft | 461 kts | 173° |
| 2026-05-03 23:56 | 20.30023 | -78.71023 | 36040 ft | 461 kts | 173° |
| 2026-05-03 23:57 | 20.23766 | -78.69674 | 36042 ft | 461 kts | 173° |
| 2026-05-03 23:57 | 20.17474 | -78.68313 | 36045 ft | 461 kts | 173° |
| 2026-05-03 23:58 | 20.11181 | -78.66948 | 36041 ft | 461 kts | 173° |
| 2026-05-03 23:58 | 20.04892 | -78.65592 | 35946 ft | 461 kts | 173° |
| 2026-05-03 23:59 | 20.01750 | -78.64918 | 35534 ft | 461 kts | 172° |
| 2026-05-03 23:59 | 19.98590 | -78.64241 | 34742 ft | 466 kts | 172° |
| 2026-05-03 23:59 | 19.95392 | -78.63576 | 33942 ft | 471 kts | 172° |
| 2026-05-03 23:59 | 19.92185 | -78.62927 | 33404 ft | 467 kts | 172° |
| 2026-05-04 00:00 | 19.88999 | -78.62294 | 32866 ft | 463 kts | 172° |
| 2026-05-04 00:00 | 19.85837 | -78.61670 | 32328 ft | 459 kts | 172° |
| 2026-05-04 00:00 | 19.82700 | -78.61044 | 31788 ft | 456 kts | 172° |
| 2026-05-04 00:00 | 19.79587 | -78.60419 | 31254 ft | 453 kts | 172° |
| 2026-05-04 00:01 | 19.76537 | -78.59801 | 30716 ft | 450 kts | 172° |
| 2026-05-04 00:01 | 19.73467 | -78.59177 | 30194 ft | 446 kts | 172° |
| 2026-05-04 00:01 | 19.70427 | -78.58562 | 29620 ft | 443 kts | 172° |
| 2026-05-04 00:01 | 19.67413 | -78.57954 | 29110 ft | 437 kts | 172° |
| 2026-05-04 00:02 | 19.64435 | -78.57355 | 28607 ft | 432 kts | 172° |
| 2026-05-04 00:02 | 19.61498 | -78.56763 | 28108 ft | 427 kts | 172° |
| 2026-05-04 00:02 | 19.58589 | -78.56177 | 27629 ft | 422 kts | 172° |
| 2026-05-04 00:02 | 19.55717 | -78.55598 | 27152 ft | 418 kts | 172° |
| 2026-05-04 00:03 | 19.52869 | -78.55026 | 26703 ft | 413 kts | 172° |
| 2026-05-04 00:03 | 19.50057 | -78.54457 | 26249 ft | 410 kts | 172° |
| 2026-05-04 00:03 | 19.47264 | -78.53893 | 25818 ft | 406 kts | 172° |
| 2026-05-04 00:03 | 19.44507 | -78.53340 | 25391 ft | 402 kts | 172° |
| 2026-05-04 00:04 | 19.41765 | -78.52792 | 24954 ft | 400 kts | 171° |
| 2026-05-04 00:04 | 19.39034 | -78.52247 | 24542 ft | 397 kts | 171° |
| 2026-05-04 00:04 | 19.36319 | -78.51705 | 24115 ft | 395 kts | 171° |
| 2026-05-04 00:04 | 19.33653 | -78.51174 | 23683 ft | 393 kts | 171° |
| 2026-05-04 00:05 | 19.30937 | -78.50630 | 23191 ft | 391 kts | 171° |
| 2026-05-04 00:05 | 19.28273 | -78.50093 | 22736 ft | 387 kts | 171° |
| 2026-05-04 00:05 | 19.25676 | -78.49571 | 22296 ft | 383 kts | 171° |
| 2026-05-04 00:05 | 19.23067 | -78.49044 | 21842 ft | 380 kts | 171° |
| 2026-05-04 00:06 | 19.20475 | -78.48521 | 21378 ft | 377 kts | 170° |
| 2026-05-04 00:06 | 19.17903 | -78.48003 | 20911 ft | 374 kts | 170° |
| 2026-05-04 00:06 | 19.15354 | -78.47497 | 20445 ft | 371 kts | 171° |
| 2026-05-04 00:06 | 19.12822 | -78.46993 | 19978 ft | 369 kts | 170° |
| 2026-05-04 00:07 | 19.10299 | -78.46488 | 19510 ft | 367 kts | 169° |
| 2026-05-04 00:07 | 19.07788 | -78.45982 | 19038 ft | 366 kts | 169° |
| 2026-05-04 00:07 | 19.05285 | -78.45477 | 18570 ft | 365 kts | 169° |
| 2026-05-04 00:07 | 19.02789 | -78.44979 | 18061 ft | 364 kts | 169° |
| 2026-05-04 00:08 | 19.00311 | -78.44484 | 17570 ft | 361 kts | 169° |
| 2026-05-04 00:08 | 18.97863 | -78.43951 | 17114 ft | 358 kts | 164° |
| 2026-05-04 00:08 | 18.95566 | -78.42978 | 16644 ft | 355 kts | 151° |
| 2026-05-04 00:08 | 18.93544 | -78.41501 | 16180 ft | 353 kts | 138° |
| 2026-05-04 00:09 | 18.91831 | -78.39645 | 15729 ft | 351 kts | 133° |
| 2026-05-04 00:09 | 18.90175 | -78.37755 | 15254 ft | 350 kts | 133° |
| 2026-05-04 00:09 | 18.88542 | -78.35895 | 14796 ft | 349 kts | 133° |
| 2026-05-04 00:09 | 18.86889 | -78.34015 | 14321 ft | 348 kts | 133° |
| 2026-05-04 00:10 | 18.85241 | -78.32145 | 13880 ft | 348 kts | 133° |
| 2026-05-04 00:10 | 18.83593 | -78.30276 | 13380 ft | 347 kts | 132° |
| 2026-05-04 00:10 | 18.81949 | -78.28413 | 12918 ft | 345 kts | 133° |
| 2026-05-04 00:10 | 18.80314 | -78.26564 | 12470 ft | 343 kts | 133° |
| 2026-05-04 00:11 | 18.78695 | -78.24730 | 12029 ft | 340 kts | 132° |
| 2026-05-04 00:11 | 18.77090 | -78.22912 | 11598 ft | 338 kts | 132° |
| 2026-05-04 00:11 | 18.75489 | -78.21099 | 11152 ft | 336 kts | 132° |
| 2026-05-04 00:11 | 18.73896 | -78.19294 | 10715 ft | 335 kts | 132° |
| 2026-05-04 00:12 | 18.72311 | -78.17499 | 10263 ft | 333 kts | 132° |
| 2026-05-04 00:12 | 18.70748 | -78.15731 | 10134 ft | 322 kts | 133° |
| 2026-05-04 00:12 | 18.69252 | -78.14040 | 9974 ft | 307 kts | 133° |
| 2026-05-04 00:12 | 18.67815 | -78.12415 | 9467 ft | 299 kts | 132° |
| 2026-05-04 00:13 | 18.66404 | -78.10822 | 8839 ft | 296 kts | 132° |
| 2026-05-04 00:13 | 18.65020 | -78.09256 | 8307 ft | 297 kts | 132° |
| 2026-05-04 00:13 | 18.63517 | -78.07808 | 8039 ft | 291 kts | 149° |
| 2026-05-04 00:13 | 18.61607 | -78.07241 | 7487 ft | 287 kts | 181° |
| 2026-05-04 00:14 | 18.59724 | -78.07847 | 6899 ft | 285 kts | 213° |
| 2026-05-04 00:14 | 18.58170 | -78.09141 | 6255 ft | 286 kts | 219° |
| 2026-05-04 00:14 | 18.56551 | -78.10355 | 5613 ft | 284 kts | 208° |
| 2026-05-04 00:14 | 18.54743 | -78.11172 | 5005 ft | 282 kts | 195° |
| 2026-05-04 00:15 | 18.52832 | -78.11594 | 4450 ft | 278 kts | 186° |
| 2026-05-04 00:15 | 18.50965 | -78.11734 | 4277 ft | 260 kts | 180° |
| 2026-05-04 00:15 | 18.49207 | -78.11709 | 4042 ft | 246 kts | 175° |
| 2026-05-04 00:15 | 18.47538 | -78.11542 | 3751 ft | 235 kts | 170° |
| 2026-05-04 00:16 | 18.45955 | -78.11233 | 3468 ft | 226 kts | 165° |
| 2026-05-04 00:16 | 18.44547 | -78.10614 | 3226 ft | 216 kts | 139° |
| 2026-05-04 00:16 | 18.43640 | -78.09436 | 3128 ft | 203 kts | 112° |
| 2026-05-04 00:16 | 18.43355 | -78.08020 | 2986 ft | 196 kts | 85° |
| 2026-05-04 00:17 | 18.43681 | -78.06655 | 2785 ft | 192 kts | 64° |
| 2026-05-04 00:17 | 18.44241 | -78.05378 | 2552 ft | 192 kts | 64° |
| 2026-05-04 00:17 | 18.44794 | -78.04118 | 2338 ft | 185 kts | 64° |
| 2026-05-04 00:17 | 18.45315 | -78.02924 | 2075 ft | 173 kts | 65° |
| 2026-05-04 00:18 | 18.45803 | -78.01807 | 1867 ft | 161 kts | 65° |
| 2026-05-04 00:18 | 18.46256 | -78.00769 | 1640 ft | 152 kts | 65° |
| 2026-05-04 00:18 | 18.46690 | -77.99776 | 1453 ft | 148 kts | 65° |
| 2026-05-04 00:18 | 18.47112 | -77.98809 | 1278 ft | 146 kts | 65° |
| 2026-05-04 00:19 | 18.47540 | -77.97828 | 1108 ft | 147 kts | 66° |
| 2026-05-04 00:19 | 18.47968 | -77.96846 | 950 ft | 147 kts | 66° |
| 2026-05-04 00:19 | 18.48390 | -77.95880 | 774 ft | 145 kts | 66° |
| 2026-05-04 00:19 | 18.48813 | -77.94914 | 561 ft | 145 kts | 67° |
| 2026-05-04 00:20 | 18.49228 | -77.93954 | 369 ft | 144 kts | 68° |
| 2026-05-04 00:20 | 18.49646 | -77.92996 | 224 ft | 144 kts | 65° |
| 2026-05-04 00:20 | 18.50057 | -77.92048 | 30 ft | 136 kts | 66° |
| 2026-05-04 00:20 | 18.50359 | -77.91347 | 23 ft | 63 kts | 65° |
| 2026-05-04 00:21 | 18.50443 | -77.91153 | 23 ft | 21 kts | 64° |
| 2026-05-04 00:21 | 18.50523 | -77.90973 | 26 ft | 26 kts | 80° |
| 2026-05-04 00:21 | 18.50526 | -77.90795 | 29 ft | 23 kts | 92° |
| 2026-05-04 00:21 | 18.50477 | -77.90709 | 25 ft | 14 kts | 202° |
| 2026-05-04 00:22 | 18.50422 | -77.90788 | 23 ft | 14 kts | 240° |
| 2026-05-04 00:22 | 18.50377 | -77.90892 | 28 ft | 17 kts | 249° |
| 2026-05-04 00:22 | 18.50325 | -77.91015 | 22 ft | 20 kts | 245° |
| 2026-05-04 00:22 | 18.50261 | -77.91157 | 26 ft | 23 kts | 245° |
| 2026-05-04 00:23 | 18.50191 | -77.91321 | 25 ft | 26 kts | 245° |
| 2026-05-04 00:23 | 18.50113 | -77.91495 | 29 ft | 17 kts | 245° |
| 2026-05-04 00:23 | 18.50066 | -77.91571 | 24 ft | 15 kts | 202° |
| 2026-05-04 00:23 | 18.49978 | -77.91549 | 21 ft | 8 kts | 175° |
| 2026-05-04 00:24 | 18.49935 | -77.91550 | 24 ft | 3 kts | 180° |
| 2026-05-04 00:24 | 18.49929 | -77.91550 | 25 ft | 0 kts | 180° |